Pagrindinis puslapis
METAR-TAF:

METAR-TAF

Oro uostai :

Talara, Peru

platuma: 04-34S, ilguma: 081-15W, Aukštis: 85 m

Dabartinis oras

Ataskaita buvo paskelbta 23 minutes, ne 14:00 UTC
Vėjas 17 kt iš Pietų/Pietryčių
Temperatūra 23°C
Drėgmė 57%
Slėgis 1014 hPa
Matomumas 10 km arba daugiau
nėra debesų žemiau 1500 m ir nėra kamuolinių lietaus debesų

METAR: SPYL 201400Z 16017KT CAVOK 23/14 Q1014 RMK BIRD HAZARD RWY 17/35 PP000

Laikas: 09:23 (14:23 UTC)

Prognozė

Ataskaita buvo paskelbta 3 valandos ir 53 minutes, ne 10:30 UTC
Prognozė galioja nuo 20 metu 12 UTC su 21 metu 12 UTC
Vėjas 14 kt iš Pietų
Matomumas 10 km arba daugiau
Išsisklaidę debesys ne aukštis 5000 ft
Nuo 20 metu 1530 UTC
Vėjas 15 kt iš Pietų/Pietvakarių
Matomumas 10 km arba daugiau
nėra debesų žemiau 1500 m ir nėra kamuolinių lietaus debesų

TAF: SPYL 201030Z 2012/2112 18014KT 9999 SCT050 TX28/2019Z TN20/2111Z FM201530 20015KT CAVOK

Orai ataskaitas ir orų prognozės (METAR, TAF).

turimą stotys yra geltonos ir raudonos taškus žemėlapyje.

Perkelti pele per norėdami pamatyti stoties vardą.

Tada spustelėkite, norėdami matyti oro stebėjimo ir prognozės.

Norėdami pakeisti žemėlapį: spustelėkite ant žalios mygtukų su juodo kryžiaus žemyn,; žalią mygtuką su brūkšneliu, jei norite nutolinti; arba žalių rodyklių gretimoms žemėlapius.


METAR-TAF: